sensor_id;sensor_type;location;lat;lon;timestamp;P1;durP1;ratioP1;P2;durP2;ratioP2
27580;SDS011;63557;52.302;7.964;2023-01-29T00:03:12;54.47;;;29.58;;
27580;SDS011;63557;52.302;7.964;2023-01-29T00:08:12;62.83;;;31.53;;
27580;SDS011;63557;52.302;7.964;2023-01-29T00:13:13;61.87;;;31.97;;
27580;SDS011;63557;52.302;7.964;2023-01-29T00:18:13;58.30;;;29.23;;
27580;SDS011;63557;52.302;7.964;2023-01-29T00:23:13;62.00;;;31.73;;
27580;SDS011;63557;52.302;7.964;2023-01-29T00:28:14;60.53;;;32.38;;
27580;SDS011;63557;52.302;7.964;2023-01-29T00:33:14;65.03;;;34.30;;
27580;SDS011;63557;52.302;7.964;2023-01-29T00:38:15;59.10;;;30.23;;
27580;SDS011;63557;52.302;7.964;2023-01-29T00:43:15;64.73;;;32.87;;
27580;SDS011;63557;52.302;7.964;2023-01-29T00:48:34;67.07;;;33.10;;
27580;SDS011;63557;52.302;7.964;2023-01-29T00:53:34;62.83;;;33.30;;
27580;SDS011;63557;52.302;7.964;2023-01-29T00:58:36;66.57;;;34.88;;
27580;SDS011;63557;52.302;7.964;2023-01-29T01:03:37;68.82;;;35.13;;
27580;SDS011;63557;52.302;7.964;2023-01-29T01:08:41;66.47;;;33.90;;
27580;SDS011;63557;52.302;7.964;2023-01-29T01:14:00;63.63;;;32.25;;
27580;SDS011;63557;52.302;7.964;2023-01-29T01:19:02;68.20;;;34.08;;
27580;SDS011;63557;52.302;7.964;2023-01-29T01:24:02;63.15;;;31.70;;
27580;SDS011;63557;52.302;7.964;2023-01-29T01:29:04;65.22;;;32.67;;
27580;SDS011;63557;52.302;7.964;2023-01-29T01:34:05;69.18;;;34.30;;
27580;SDS011;63557;52.302;7.964;2023-01-29T01:39:06;61.88;;;30.58;;
27580;SDS011;63557;52.302;7.964;2023-01-29T01:44:48;60.50;;;31.67;;
27580;SDS011;63557;52.302;7.964;2023-01-29T01:49:28;63.47;;;33.63;;
27580;SDS011;63557;52.302;7.964;2023-01-29T01:54:29;68.40;;;33.40;;
27580;SDS011;63557;52.302;7.964;2023-01-29T01:59:31;64.00;;;31.92;;
27580;SDS011;63557;52.302;7.964;2023-01-29T02:04:33;64.38;;;31.95;;
27580;SDS011;63557;52.302;7.964;2023-01-29T02:09:53;63.15;;;32.28;;
27580;SDS011;63557;52.302;7.964;2023-01-29T02:14:56;67.95;;;34.42;;
27580;SDS011;63557;52.302;7.964;2023-01-29T02:30:52;65.35;;;32.78;;
27580;SDS011;63557;52.302;7.964;2023-01-29T02:40:54;61.47;;;31.95;;
27580;SDS011;63557;52.302;7.964;2023-01-29T02:46:00;57.40;;;31.20;;
27580;SDS011;63557;52.302;7.964;2023-01-29T02:51:06;56.75;;;30.38;;
27580;SDS011;63557;52.302;7.964;2023-01-29T02:56:14;63.58;;;31.58;;
27580;SDS011;63557;52.302;7.964;2023-01-29T03:01:18;57.75;;;29.95;;
27580;SDS011;63557;52.302;7.964;2023-01-29T03:06:21;64.90;;;30.83;;
27580;SDS011;63557;52.302;7.964;2023-01-29T03:11:23;62.15;;;31.88;;
27580;SDS011;63557;52.302;7.964;2023-01-29T03:16:31;57.78;;;31.08;;
27580;SDS011;63557;52.302;7.964;2023-01-29T03:21:39;63.63;;;30.52;;
27580;SDS011;63557;52.302;7.964;2023-01-29T03:26:55;61.38;;;31.05;;
27580;SDS011;63557;52.302;7.964;2023-01-29T03:32:17;62.55;;;31.15;;
27580;SDS011;63557;52.302;7.964;2023-01-29T03:47:26;59.75;;;30.05;;
27580;SDS011;63557;52.302;7.964;2023-01-29T03:52:42;61.35;;;30.45;;
27580;SDS011;63557;52.302;7.964;2023-01-29T03:57:50;63.67;;;30.75;;
27580;SDS011;63557;52.302;7.964;2023-01-29T04:03:07;61.30;;;30.17;;
27580;SDS011;63557;52.302;7.964;2023-01-29T04:08:14;65.10;;;32.17;;
27580;SDS011;63557;52.302;7.964;2023-01-29T04:13:17;60.20;;;28.70;;
27580;SDS011;63557;52.302;7.964;2023-01-29T04:18:19;61.33;;;30.35;;
27580;SDS011;63557;52.302;7.964;2023-01-29T04:23:48;63.15;;;29.63;;
27580;SDS011;63557;52.302;7.964;2023-01-29T04:39:17;67.90;;;32.60;;
27580;SDS011;63557;52.302;7.964;2023-01-29T04:44:22;71.32;;;33.53;;
27580;SDS011;63557;52.302;7.964;2023-01-29T04:59:33;73.25;;;34.28;;
27580;SDS011;63557;52.302;7.964;2023-01-29T05:04:35;71.68;;;33.60;;
27580;SDS011;63557;52.302;7.964;2023-01-29T05:09:37;73.80;;;35.05;;
27580;SDS011;63557;52.302;7.964;2023-01-29T05:14:38;73.88;;;32.80;;
27580;SDS011;63557;52.302;7.964;2023-01-29T05:19:40;71.43;;;34.28;;
27580;SDS011;63557;52.302;7.964;2023-01-29T05:24:41;76.93;;;35.35;;
27580;SDS011;63557;52.302;7.964;2023-01-29T05:29:44;75.63;;;35.08;;
27580;SDS011;63557;52.302;7.964;2023-01-29T05:34:44;76.75;;;33.92;;
27580;SDS011;63557;52.302;7.964;2023-01-29T05:39:45;68.53;;;32.83;;
27580;SDS011;63557;52.302;7.964;2023-01-29T05:44:46;72.00;;;30.60;;
27580;SDS011;63557;52.302;7.964;2023-01-29T05:49:46;78.07;;;35.63;;
27580;SDS011;63557;52.302;7.964;2023-01-29T05:54:46;71.78;;;32.20;;
27580;SDS011;63557;52.302;7.964;2023-01-29T05:59:47;72.68;;;33.65;;
27580;SDS011;63557;52.302;7.964;2023-01-29T06:04:49;76.78;;;35.72;;
27580;SDS011;63557;52.302;7.964;2023-01-29T06:09:49;74.15;;;31.52;;
27580;SDS011;63557;52.302;7.964;2023-01-29T06:14:50;75.63;;;37.00;;
27580;SDS011;63557;52.302;7.964;2023-01-29T06:19:50;70.75;;;34.80;;
27580;SDS011;63557;52.302;7.964;2023-01-29T06:24:50;77.33;;;33.70;;
27580;SDS011;63557;52.302;7.964;2023-01-29T06:29:51;77.27;;;35.17;;
27580;SDS011;63557;52.302;7.964;2023-01-29T06:34:51;76.50;;;33.67;;
27580;SDS011;63557;52.302;7.964;2023-01-29T06:39:52;77.10;;;36.33;;
27580;SDS011;63557;52.302;7.964;2023-01-29T06:44:55;75.57;;;35.13;;
27580;SDS011;63557;52.302;7.964;2023-01-29T06:49:56;75.05;;;35.08;;
27580;SDS011;63557;52.302;7.964;2023-01-29T06:54:56;77.43;;;36.57;;
27580;SDS011;63557;52.302;7.964;2023-01-29T06:59:56;80.03;;;37.22;;
27580;SDS011;63557;52.302;7.964;2023-01-29T07:04:57;83.68;;;37.35;;
27580;SDS011;63557;52.302;7.964;2023-01-29T07:09:57;78.63;;;36.07;;
27580;SDS011;63557;52.302;7.964;2023-01-29T07:14:57;80.85;;;36.55;;
27580;SDS011;63557;52.302;7.964;2023-01-29T07:19:58;73.43;;;33.67;;
27580;SDS011;63557;52.302;7.964;2023-01-29T07:24:58;78.32;;;35.83;;
27580;SDS011;63557;52.302;7.964;2023-01-29T07:29:59;70.95;;;34.80;;
27580;SDS011;63557;52.302;7.964;2023-01-29T07:34:59;75.17;;;35.00;;
27580;SDS011;63557;52.302;7.964;2023-01-29T07:39:59;80.10;;;35.43;;
27580;SDS011;63557;52.302;7.964;2023-01-29T07:45:00;75.75;;;35.38;;
27580;SDS011;63557;52.302;7.964;2023-01-29T07:50:00;69.88;;;33.67;;
27580;SDS011;63557;52.302;7.964;2023-01-29T07:55:01;78.95;;;33.33;;
27580;SDS011;63557;52.302;7.964;2023-01-29T08:00:01;70.07;;;33.33;;
27580;SDS011;63557;52.302;7.964;2023-01-29T08:05:01;75.40;;;35.72;;
27580;SDS011;63557;52.302;7.964;2023-01-29T08:10:02;72.50;;;33.10;;
27580;SDS011;63557;52.302;7.964;2023-01-29T08:15:03;76.35;;;36.25;;
27580;SDS011;63557;52.302;7.964;2023-01-29T08:20:04;70.10;;;30.88;;
27580;SDS011;63557;52.302;7.964;2023-01-29T08:25:05;75.68;;;34.20;;
27580;SDS011;63557;52.302;7.964;2023-01-29T08:30:05;71.43;;;33.65;;
27580;SDS011;63557;52.302;7.964;2023-01-29T08:35:06;71.00;;;30.63;;
27580;SDS011;63557;52.302;7.964;2023-01-29T08:40:07;68.35;;;32.50;;
27580;SDS011;63557;52.302;7.964;2023-01-29T08:45:08;63.38;;;27.40;;
27580;SDS011;63557;52.302;7.964;2023-01-29T08:50:09;72.95;;;32.88;;
27580;SDS011;63557;52.302;7.964;2023-01-29T08:55:09;78.57;;;34.97;;
27580;SDS011;63557;52.302;7.964;2023-01-29T09:00:10;69.57;;;32.20;;
27580;SDS011;63557;52.302;7.964;2023-01-29T09:05:11;62.67;;;26.77;;
27580;SDS011;63557;52.302;7.964;2023-01-29T09:10:11;59.15;;;28.05;;
27580;SDS011;63557;52.302;7.964;2023-01-29T09:15:12;64.30;;;30.85;;
27580;SDS011;63557;52.302;7.964;2023-01-29T09:20:13;71.65;;;33.55;;
27580;SDS011;63557;52.302;7.964;2023-01-29T09:25:13;72.20;;;33.67;;
27580;SDS011;63557;52.302;7.964;2023-01-29T09:30:14;61.50;;;30.30;;
27580;SDS011;63557;52.302;7.964;2023-01-29T09:35:14;66.20;;;31.77;;
27580;SDS011;63557;52.302;7.964;2023-01-29T09:40:24;65.87;;;29.77;;
27580;SDS011;63557;52.302;7.964;2023-01-29T09:45:26;68.97;;;33.15;;
27580;SDS011;63557;52.302;7.964;2023-01-29T09:50:37;61.80;;;30.42;;
27580;SDS011;63557;52.302;7.964;2023-01-29T09:55:48;70.15;;;31.05;;
27580;SDS011;63557;52.302;7.964;2023-01-29T10:11:09;59.25;;;29.98;;
27580;SDS011;63557;52.302;7.964;2023-01-29T10:26:12;54.43;;;26.87;;
27580;SDS011;63557;52.302;7.964;2023-01-29T10:36:18;55.58;;;27.42;;
27580;SDS011;63557;52.302;7.964;2023-01-29T10:47:07;60.95;;;30.23;;
27580;SDS011;63557;52.302;7.964;2023-01-29T10:52:17;56.50;;;28.03;;
27580;SDS011;63557;52.302;7.964;2023-01-29T11:02:21;62.58;;;33.60;;
27580;SDS011;63557;52.302;7.964;2023-01-29T11:07:21;57.05;;;28.50;;
27580;SDS011;63557;52.302;7.964;2023-01-29T11:12:22;55.03;;;27.17;;
27580;SDS011;63557;52.302;7.964;2023-01-29T11:17:26;55.30;;;27.42;;
27580;SDS011;63557;52.302;7.964;2023-01-29T11:22:27;53.10;;;26.53;;
27580;SDS011;63557;52.302;7.964;2023-01-29T11:27:27;52.83;;;27.42;;
27580;SDS011;63557;52.302;7.964;2023-01-29T11:32:32;77.80;;;40.22;;
27580;SDS011;63557;52.302;7.964;2023-01-29T11:37:37;54.00;;;27.80;;
27580;SDS011;63557;52.302;7.964;2023-01-29T11:42:38;51.27;;;28.03;;
27580;SDS011;63557;52.302;7.964;2023-01-29T11:47:38;51.88;;;26.45;;
27580;SDS011;63557;52.302;7.964;2023-01-29T11:52:39;54.45;;;28.23;;
27580;SDS011;63557;52.302;7.964;2023-01-29T11:57:41;59.25;;;31.27;;
27580;SDS011;63557;52.302;7.964;2023-01-29T12:02:43;54.80;;;29.30;;
27580;SDS011;63557;52.302;7.964;2023-01-29T12:07:48;59.35;;;31.00;;
27580;SDS011;63557;52.302;7.964;2023-01-29T12:12:49;56.30;;;27.33;;
27580;SDS011;63557;52.302;7.964;2023-01-29T12:18:13;55.13;;;28.07;;
27580;SDS011;63557;52.302;7.964;2023-01-29T12:23:13;54.67;;;29.05;;
27580;SDS011;63557;52.302;7.964;2023-01-29T12:28:22;58.55;;;29.65;;
27580;SDS011;63557;52.302;7.964;2023-01-29T12:33:38;56.67;;;29.90;;
27580;SDS011;63557;52.302;7.964;2023-01-29T12:38:40;58.83;;;30.85;;
27580;SDS011;63557;52.302;7.964;2023-01-29T12:43:44;52.90;;;30.48;;
27580;SDS011;63557;52.302;7.964;2023-01-29T12:48:46;56.80;;;30.58;;
27580;SDS011;63557;52.302;7.964;2023-01-29T12:53:49;60.80;;;29.67;;
27580;SDS011;63557;52.302;7.964;2023-01-29T12:58:52;65.22;;;32.00;;
27580;SDS011;63557;52.302;7.964;2023-01-29T13:09:06;58.40;;;31.65;;
27580;SDS011;63557;52.302;7.964;2023-01-29T13:14:12;58.58;;;29.88;;
27580;SDS011;63557;52.302;7.964;2023-01-29T13:19:30;62.03;;;30.83;;
27580;SDS011;63557;52.302;7.964;2023-01-29T13:24:38;59.22;;;30.35;;
27580;SDS011;63557;52.302;7.964;2023-01-29T13:29:39;58.03;;;26.73;;
27580;SDS011;63557;52.302;7.964;2023-01-29T13:34:43;65.10;;;30.15;;
27580;SDS011;63557;52.302;7.964;2023-01-29T13:39:48;63.90;;;30.33;;
27580;SDS011;63557;52.302;7.964;2023-01-29T13:44:53;63.85;;;32.13;;
27580;SDS011;63557;52.302;7.964;2023-01-29T13:54:59;69.93;;;34.60;;
27580;SDS011;63557;52.302;7.964;2023-01-29T14:00:01;73.90;;;35.65;;
27580;SDS011;63557;52.302;7.964;2023-01-29T14:10:21;69.03;;;34.45;;
27580;SDS011;63557;52.302;7.964;2023-01-29T14:15:22;75.72;;;36.58;;
27580;SDS011;63557;52.302;7.964;2023-01-29T14:20:25;65.80;;;31.95;;
27580;SDS011;63557;52.302;7.964;2023-01-29T14:25:29;77.32;;;36.38;;
27580;SDS011;63557;52.302;7.964;2023-01-29T14:30:31;77.03;;;37.33;;
27580;SDS011;63557;52.302;7.964;2023-01-29T14:35:33;81.25;;;40.58;;
27580;SDS011;63557;52.302;7.964;2023-01-29T14:40:33;73.35;;;34.53;;
27580;SDS011;63557;52.302;7.964;2023-01-29T14:45:37;87.15;;;39.35;;
27580;SDS011;63557;52.302;7.964;2023-01-29T14:50:39;81.57;;;41.65;;
27580;SDS011;63557;52.302;7.964;2023-01-29T15:00:56;89.72;;;45.53;;
27580;SDS011;63557;52.302;7.964;2023-01-29T15:05:57;84.50;;;37.25;;
27580;SDS011;63557;52.302;7.964;2023-01-29T15:11:02;95.93;;;42.78;;
27580;SDS011;63557;52.302;7.964;2023-01-29T15:16:23;92.13;;;45.05;;
27580;SDS011;63557;52.302;7.964;2023-01-29T15:21:24;89.57;;;43.85;;
27580;SDS011;63557;52.302;7.964;2023-01-29T15:26:24;103.43;;;49.10;;
27580;SDS011;63557;52.302;7.964;2023-01-29T15:31:25;97.13;;;42.93;;
27580;SDS011;63557;52.302;7.964;2023-01-29T15:36:26;102.10;;;47.72;;
27580;SDS011;63557;52.302;7.964;2023-01-29T15:41:27;98.10;;;46.30;;
27580;SDS011;63557;52.302;7.964;2023-01-29T15:46:32;101.73;;;43.10;;
27580;SDS011;63557;52.302;7.964;2023-01-29T15:51:33;102.85;;;49.47;;
27580;SDS011;63557;52.302;7.964;2023-01-29T15:56:38;102.72;;;49.38;;
27580;SDS011;63557;52.302;7.964;2023-01-29T16:01:40;106.93;;;47.20;;
27580;SDS011;63557;52.302;7.964;2023-01-29T16:06:41;98.10;;;43.55;;
27580;SDS011;63557;52.302;7.964;2023-01-29T16:11:42;94.32;;;43.05;;
27580;SDS011;63557;52.302;7.964;2023-01-29T16:16:43;103.40;;;47.80;;
27580;SDS011;63557;52.302;7.964;2023-01-29T16:21:44;103.82;;;45.58;;
27580;SDS011;63557;52.302;7.964;2023-01-29T16:26:46;93.47;;;44.40;;
27580;SDS011;63557;52.302;7.964;2023-01-29T16:31:47;83.57;;;36.95;;
27580;SDS011;63557;52.302;7.964;2023-01-29T16:36:49;95.07;;;45.28;;
27580;SDS011;63557;52.302;7.964;2023-01-29T16:41:59;100.70;;;47.47;;
27580;SDS011;63557;52.302;7.964;2023-01-29T16:47:10;94.57;;;43.83;;
27580;SDS011;63557;52.302;7.964;2023-01-29T16:52:19;104.53;;;41.50;;
27580;SDS011;63557;52.302;7.964;2023-01-29T16:57:22;95.93;;;42.88;;
27580;SDS011;63557;52.302;7.964;2023-01-29T17:02:30;104.18;;;48.25;;
27580;SDS011;63557;52.302;7.964;2023-01-29T17:07:34;109.95;;;45.65;;
27580;SDS011;63557;52.302;7.964;2023-01-29T17:12:35;111.85;;;51.33;;
27580;SDS011;63557;52.302;7.964;2023-01-29T17:17:35;114.93;;;51.17;;
27580;SDS011;63557;52.302;7.964;2023-01-29T17:22:36;108.07;;;49.72;;
27580;SDS011;63557;52.302;7.964;2023-01-29T17:27:36;108.23;;;46.90;;
27580;SDS011;63557;52.302;7.964;2023-01-29T17:32:39;113.10;;;52.88;;
27580;SDS011;63557;52.302;7.964;2023-01-29T17:37:39;124.27;;;52.10;;
27580;SDS011;63557;52.302;7.964;2023-01-29T17:42:40;121.28;;;51.08;;
27580;SDS011;63557;52.302;7.964;2023-01-29T17:47:40;106.15;;;45.97;;
27580;SDS011;63557;52.302;7.964;2023-01-29T17:52:40;90.93;;;39.87;;
27580;SDS011;63557;52.302;7.964;2023-01-29T17:57:41;114.25;;;50.85;;
27580;SDS011;63557;52.302;7.964;2023-01-29T18:02:41;108.90;;;50.28;;
27580;SDS011;63557;52.302;7.964;2023-01-29T18:07:42;118.33;;;52.43;;
27580;SDS011;63557;52.302;7.964;2023-01-29T18:12:43;101.72;;;42.17;;
27580;SDS011;63557;52.302;7.964;2023-01-29T18:17:43;106.82;;;47.55;;
27580;SDS011;63557;52.302;7.964;2023-01-29T18:22:44;103.35;;;44.58;;
27580;SDS011;63557;52.302;7.964;2023-01-29T18:27:45;104.18;;;49.55;;
27580;SDS011;63557;52.302;7.964;2023-01-29T18:32:45;115.23;;;49.77;;
27580;SDS011;63557;52.302;7.964;2023-01-29T18:37:46;95.78;;;42.08;;
27580;SDS011;63557;52.302;7.964;2023-01-29T18:42:47;108.78;;;47.53;;
27580;SDS011;63557;52.302;7.964;2023-01-29T18:47:50;114.22;;;49.63;;
27580;SDS011;63557;52.302;7.964;2023-01-29T18:52:53;107.13;;;46.53;;
27580;SDS011;63557;52.302;7.964;2023-01-29T18:57:54;104.85;;;46.92;;
27580;SDS011;63557;52.302;7.964;2023-01-29T19:02:55;105.97;;;47.80;;
27580;SDS011;63557;52.302;7.964;2023-01-29T19:07:55;106.90;;;44.70;;
27580;SDS011;63557;52.302;7.964;2023-01-29T19:12:56;85.25;;;35.78;;
27580;SDS011;63557;52.302;7.964;2023-01-29T19:17:56;101.00;;;44.47;;
27580;SDS011;63557;52.302;7.964;2023-01-29T19:22:57;107.95;;;48.28;;
27580;SDS011;63557;52.302;7.964;2023-01-29T19:27:57;98.93;;;46.72;;
27580;SDS011;63557;52.302;7.964;2023-01-29T19:32:58;103.68;;;48.13;;
27580;SDS011;63557;52.302;7.964;2023-01-29T19:37:58;80.15;;;38.70;;
27580;SDS011;63557;52.302;7.964;2023-01-29T19:42:59;75.13;;;32.00;;
27580;SDS011;63557;52.302;7.964;2023-01-29T19:48:00;104.60;;;47.70;;
27580;SDS011;63557;52.302;7.964;2023-01-29T19:53:00;76.88;;;35.25;;
27580;SDS011;63557;52.302;7.964;2023-01-29T19:58:01;95.70;;;45.22;;
27580;SDS011;63557;52.302;7.964;2023-01-29T20:03:02;92.82;;;43.97;;
27580;SDS011;63557;52.302;7.964;2023-01-29T20:08:03;97.10;;;44.77;;
27580;SDS011;63557;52.302;7.964;2023-01-29T20:13:03;89.07;;;44.75;;
27580;SDS011;63557;52.302;7.964;2023-01-29T20:18:05;98.53;;;44.85;;
27580;SDS011;63557;52.302;7.964;2023-01-29T20:23:11;97.57;;;44.15;;
27580;SDS011;63557;52.302;7.964;2023-01-29T20:28:13;97.75;;;43.75;;
27580;SDS011;63557;52.302;7.964;2023-01-29T20:33:14;91.65;;;44.00;;
27580;SDS011;63557;52.302;7.964;2023-01-29T20:38:14;84.25;;;38.83;;
27580;SDS011;63557;52.302;7.964;2023-01-29T20:43:15;94.33;;;46.70;;
27580;SDS011;63557;52.302;7.964;2023-01-29T20:48:15;80.45;;;36.92;;
27580;SDS011;63557;52.302;7.964;2023-01-29T20:53:15;98.07;;;48.27;;
27580;SDS011;63557;52.302;7.964;2023-01-29T20:58:16;99.95;;;44.60;;
27580;SDS011;63557;52.302;7.964;2023-01-29T21:03:16;98.30;;;45.10;;
27580;SDS011;63557;52.302;7.964;2023-01-29T21:08:16;92.57;;;42.93;;
27580;SDS011;63557;52.302;7.964;2023-01-29T21:13:17;93.50;;;45.53;;
27580;SDS011;63557;52.302;7.964;2023-01-29T21:18:17;91.82;;;42.40;;
27580;SDS011;63557;52.302;7.964;2023-01-29T21:23:18;85.18;;;39.60;;
27580;SDS011;63557;52.302;7.964;2023-01-29T21:28:18;91.87;;;43.47;;
27580;SDS011;63557;52.302;7.964;2023-01-29T21:33:19;90.07;;;41.40;;
27580;SDS011;63557;52.302;7.964;2023-01-29T21:38:19;92.80;;;43.63;;
27580;SDS011;63557;52.302;7.964;2023-01-29T21:43:19;83.83;;;40.33;;
27580;SDS011;63557;52.302;7.964;2023-01-29T21:48:20;83.27;;;41.03;;
27580;SDS011;63557;52.302;7.964;2023-01-29T21:53:20;87.88;;;40.72;;
27580;SDS011;63557;52.302;7.964;2023-01-29T21:58:20;80.38;;;40.03;;
27580;SDS011;63557;52.302;7.964;2023-01-29T22:03:21;80.57;;;38.60;;
27580;SDS011;63557;52.302;7.964;2023-01-29T22:08:21;78.72;;;38.72;;
27580;SDS011;63557;52.302;7.964;2023-01-29T22:13:22;84.80;;;39.13;;
27580;SDS011;63557;52.302;7.964;2023-01-29T22:18:22;79.88;;;37.85;;
27580;SDS011;63557;52.302;7.964;2023-01-29T22:23:22;80.20;;;37.40;;
27580;SDS011;63557;52.302;7.964;2023-01-29T22:28:23;81.85;;;40.95;;
27580;SDS011;63557;52.302;7.964;2023-01-29T22:33:23;81.82;;;40.08;;
27580;SDS011;63557;52.302;7.964;2023-01-29T22:38:24;86.38;;;40.83;;
27580;SDS011;63557;52.302;7.964;2023-01-29T22:43:24;88.78;;;41.42;;
27580;SDS011;63557;52.302;7.964;2023-01-29T22:48:25;86.60;;;39.37;;
27580;SDS011;63557;52.302;7.964;2023-01-29T22:53:27;85.57;;;41.20;;
27580;SDS011;63557;52.302;7.964;2023-01-29T22:58:27;71.60;;;31.52;;
27580;SDS011;63557;52.302;7.964;2023-01-29T23:03:27;78.03;;;39.77;;
27580;SDS011;63557;52.302;7.964;2023-01-29T23:08:28;82.10;;;37.13;;
27580;SDS011;63557;52.302;7.964;2023-01-29T23:13:28;87.57;;;39.33;;
27580;SDS011;63557;52.302;7.964;2023-01-29T23:18:29;81.13;;;38.10;;
27580;SDS011;63557;52.302;7.964;2023-01-29T23:23:33;91.20;;;40.27;;
27580;SDS011;63557;52.302;7.964;2023-01-29T23:28:33;79.28;;;35.20;;
27580;SDS011;63557;52.302;7.964;2023-01-29T23:33:33;87.73;;;40.13;;
27580;SDS011;63557;52.302;7.964;2023-01-29T23:38:34;84.93;;;39.37;;
27580;SDS011;63557;52.302;7.964;2023-01-29T23:43:34;83.70;;;40.10;;
27580;SDS011;63557;52.302;7.964;2023-01-29T23:48:35;79.87;;;41.20;;
27580;SDS011;63557;52.302;7.964;2023-01-29T23:53:35;79.57;;;34.40;;
27580;SDS011;63557;52.302;7.964;2023-01-29T23:58:35;88.93;;;40.63;;
